sensor_id;sensor_type;location;lat;lon;timestamp;P1;durP1;ratioP1;P2;durP2;ratioP2
22935;SDS011;11633;42.716;23.312;2023-05-27T00:01:50;11.23;;;9.13;;
22935;SDS011;11633;42.716;23.312;2023-05-27T00:04:15;12.30;;;9.25;;
22935;SDS011;11633;42.716;23.312;2023-05-27T00:06:40;12.15;;;9.82;;
22935;SDS011;11633;42.716;23.312;2023-05-27T00:09:05;13.43;;;9.45;;
22935;SDS011;11633;42.716;23.312;2023-05-27T00:11:31;12.90;;;10.15;;
22935;SDS011;11633;42.716;23.312;2023-05-27T00:13:56;13.38;;;10.15;;
22935;SDS011;11633;42.716;23.312;2023-05-27T00:16:21;13.13;;;9.82;;
22935;SDS011;11633;42.716;23.312;2023-05-27T00:18:47;11.82;;;10.50;;
22935;SDS011;11633;42.716;23.312;2023-05-27T00:21:13;13.55;;;9.43;;
22935;SDS011;11633;42.716;23.312;2023-05-27T00:23:38;12.25;;;10.05;;
22935;SDS011;11633;42.716;23.312;2023-05-27T00:26:03;11.02;;;9.25;;
22935;SDS011;11633;42.716;23.312;2023-05-27T00:28:28;10.52;;;8.02;;
22935;SDS011;11633;42.716;23.312;2023-05-27T00:30:56;7.85;;;6.32;;
22935;SDS011;11633;42.716;23.312;2023-05-27T00:33:22;9.10;;;7.50;;
22935;SDS011;11633;42.716;23.312;2023-05-27T00:36:05;9.05;;;6.18;;
22935;SDS011;11633;42.716;23.312;2023-05-27T00:38:31;8.02;;;6.45;;
22935;SDS011;11633;42.716;23.312;2023-05-27T00:40:56;9.73;;;6.63;;
22935;SDS011;11633;42.716;23.312;2023-05-27T00:43:22;7.15;;;6.22;;
22935;SDS011;11633;42.716;23.312;2023-05-27T00:45:47;6.72;;;5.22;;
22935;SDS011;11633;42.716;23.312;2023-05-27T00:48:12;6.65;;;5.28;;
22935;SDS011;11633;42.716;23.312;2023-05-27T00:50:38;5.10;;;4.60;;
22935;SDS011;11633;42.716;23.312;2023-05-27T00:53:03;7.10;;;5.00;;
22935;SDS011;11633;42.716;23.312;2023-05-27T00:55:28;5.57;;;4.43;;
22935;SDS011;11633;42.716;23.312;2023-05-27T00:57:54;8.00;;;5.40;;
22935;SDS011;11633;42.716;23.312;2023-05-27T01:00:19;6.22;;;5.65;;
22935;SDS011;11633;42.716;23.312;2023-05-27T01:02:45;9.45;;;6.70;;
22935;SDS011;11633;42.716;23.312;2023-05-27T01:05:11;6.95;;;5.80;;
22935;SDS011;11633;42.716;23.312;2023-05-27T01:10:36;8.02;;;5.97;;
22935;SDS011;11633;42.716;23.312;2023-05-27T01:13:00;7.30;;;5.90;;
22935;SDS011;11633;42.716;23.312;2023-05-27T01:15:26;7.57;;;6.65;;
22935;SDS011;11633;42.716;23.312;2023-05-27T01:17:53;7.07;;;6.45;;
22935;SDS011;11633;42.716;23.312;2023-05-27T01:20:20;8.13;;;6.60;;
22935;SDS011;11633;42.716;23.312;2023-05-27T01:22:45;8.05;;;7.20;;
22935;SDS011;11633;42.716;23.312;2023-05-27T01:25:10;9.43;;;6.22;;
22935;SDS011;11633;42.716;23.312;2023-05-27T01:27:36;7.80;;;6.57;;
22935;SDS011;11633;42.716;23.312;2023-05-27T01:30:05;7.57;;;5.93;;
22935;SDS011;11633;42.716;23.312;2023-05-27T01:32:33;7.30;;;6.53;;
22935;SDS011;11633;42.716;23.312;2023-05-27T01:35:02;9.02;;;7.32;;
22935;SDS011;11633;42.716;23.312;2023-05-27T01:37:33;9.82;;;7.72;;
22935;SDS011;11633;42.716;23.312;2023-05-27T01:39:59;8.30;;;7.22;;
22935;SDS011;11633;42.716;23.312;2023-05-27T01:42:24;9.70;;;6.80;;
22935;SDS011;11633;42.716;23.312;2023-05-27T01:44:50;8.85;;;7.55;;
22935;SDS011;11633;42.716;23.312;2023-05-27T01:47:15;10.77;;;7.45;;
22935;SDS011;11633;42.716;23.312;2023-05-27T01:49:40;9.82;;;6.75;;
22935;SDS011;11633;42.716;23.312;2023-05-27T01:52:05;6.95;;;6.05;;
22935;SDS011;11633;42.716;23.312;2023-05-27T01:54:31;8.10;;;6.55;;
22935;SDS011;11633;42.716;23.312;2023-05-27T01:56:56;11.93;;;8.43;;
22935;SDS011;11633;42.716;23.312;2023-05-27T01:59:22;8.18;;;7.05;;
22935;SDS011;11633;42.716;23.312;2023-05-27T02:01:47;13.60;;;7.70;;
22935;SDS011;11633;42.716;23.312;2023-05-27T02:04:12;8.90;;;8.00;;
22935;SDS011;11633;42.716;23.312;2023-05-27T02:06:37;11.50;;;8.93;;
22935;SDS011;11633;42.716;23.312;2023-05-27T02:09:03;13.40;;;9.02;;
22935;SDS011;11633;42.716;23.312;2023-05-27T02:11:28;11.10;;;8.38;;
22935;SDS011;11633;42.716;23.312;2023-05-27T02:13:54;11.77;;;9.07;;
22935;SDS011;11633;42.716;23.312;2023-05-27T02:16:20;11.95;;;9.93;;
22935;SDS011;11633;42.716;23.312;2023-05-27T02:18:47;15.88;;;10.18;;
22935;SDS011;11633;42.716;23.312;2023-05-27T02:21:13;11.70;;;9.95;;
22935;SDS011;11633;42.716;23.312;2023-05-27T02:23:39;13.60;;;10.35;;
22935;SDS011;11633;42.716;23.312;2023-05-27T02:26:04;14.68;;;11.10;;
22935;SDS011;11633;42.716;23.312;2023-05-27T02:28:29;12.98;;;10.70;;
22935;SDS011;11633;42.716;23.312;2023-05-27T02:30:54;12.65;;;10.18;;
22935;SDS011;11633;42.716;23.312;2023-05-27T02:33:20;12.68;;;10.95;;
22935;SDS011;11633;42.716;23.312;2023-05-27T02:35:45;14.40;;;10.57;;
22935;SDS011;11633;42.716;23.312;2023-05-27T02:38:10;14.43;;;10.73;;
22935;SDS011;11633;42.716;23.312;2023-05-27T02:40:36;14.00;;;10.63;;
22935;SDS011;11633;42.716;23.312;2023-05-27T02:43:01;18.58;;;11.95;;
22935;SDS011;11633;42.716;23.312;2023-05-27T02:45:26;11.60;;;10.40;;
22935;SDS011;11633;42.716;23.312;2023-05-27T02:47:51;12.55;;;11.25;;
22935;SDS011;11633;42.716;23.312;2023-05-27T02:50:17;13.80;;;10.75;;
22935;SDS011;11633;42.716;23.312;2023-05-27T02:52:42;15.60;;;11.68;;
22935;SDS011;11633;42.716;23.312;2023-05-27T02:55:07;14.38;;;11.93;;
22935;SDS011;11633;42.716;23.312;2023-05-27T02:57:33;15.07;;;12.15;;
22935;SDS011;11633;42.716;23.312;2023-05-27T02:59:58;14.35;;;12.85;;
22935;SDS011;11633;42.716;23.312;2023-05-27T03:02:23;16.48;;;13.02;;
22935;SDS011;11633;42.716;23.312;2023-05-27T03:04:48;15.50;;;12.55;;
22935;SDS011;11633;42.716;23.312;2023-05-27T03:07:14;15.95;;;12.18;;
22935;SDS011;11633;42.716;23.312;2023-05-27T03:09:39;14.65;;;12.48;;
22935;SDS011;11633;42.716;23.312;2023-05-27T03:12:05;14.10;;;12.60;;
22935;SDS011;11633;42.716;23.312;2023-05-27T03:14:30;14.05;;;12.18;;
22935;SDS011;11633;42.716;23.312;2023-05-27T03:16:55;15.60;;;11.57;;
22935;SDS011;11633;42.716;23.312;2023-05-27T03:19:21;15.73;;;11.77;;
22935;SDS011;11633;42.716;23.312;2023-05-27T03:21:46;15.10;;;11.02;;
22935;SDS011;11633;42.716;23.312;2023-05-27T03:24:11;12.88;;;11.40;;
22935;SDS011;11633;42.716;23.312;2023-05-27T03:26:38;15.32;;;12.00;;
22935;SDS011;11633;42.716;23.312;2023-05-27T03:29:03;12.57;;;11.15;;
22935;SDS011;11633;42.716;23.312;2023-05-27T03:31:28;12.90;;;10.93;;
22935;SDS011;11633;42.716;23.312;2023-05-27T03:33:53;15.93;;;11.10;;
22935;SDS011;11633;42.716;23.312;2023-05-27T03:36:19;13.13;;;10.95;;
22935;SDS011;11633;42.716;23.312;2023-05-27T03:38:45;11.73;;;9.65;;
22935;SDS011;11633;42.716;23.312;2023-05-27T03:41:10;9.90;;;8.80;;
22935;SDS011;11633;42.716;23.312;2023-05-27T03:43:36;9.05;;;7.95;;
22935;SDS011;11633;42.716;23.312;2023-05-27T03:46:01;9.00;;;8.10;;
22935;SDS011;11633;42.716;23.312;2023-05-27T03:48:26;9.18;;;7.60;;
22935;SDS011;11633;42.716;23.312;2023-05-27T03:50:51;8.75;;;7.80;;
22935;SDS011;11633;42.716;23.312;2023-05-27T03:53:17;10.10;;;8.57;;
22935;SDS011;11633;42.716;23.312;2023-05-27T03:55:42;10.02;;;8.48;;
22935;SDS011;11633;42.716;23.312;2023-05-27T03:58:07;9.73;;;8.57;;
22935;SDS011;11633;42.716;23.312;2023-05-27T04:00:33;9.88;;;7.72;;
22935;SDS011;11633;42.716;23.312;2023-05-27T04:03:00;9.18;;;7.75;;
22935;SDS011;11633;42.716;23.312;2023-05-27T04:05:25;9.18;;;8.07;;
22935;SDS011;11633;42.716;23.312;2023-05-27T04:07:50;8.73;;;7.82;;
22935;SDS011;11633;42.716;23.312;2023-05-27T04:10:16;9.85;;;7.82;;
22935;SDS011;11633;42.716;23.312;2023-05-27T04:12:42;11.27;;;8.73;;
22935;SDS011;11633;42.716;23.312;2023-05-27T04:15:07;10.35;;;8.38;;
22935;SDS011;11633;42.716;23.312;2023-05-27T04:17:33;9.95;;;8.85;;
22935;SDS011;11633;42.716;23.312;2023-05-27T04:19:58;10.70;;;8.05;;
22935;SDS011;11633;42.716;23.312;2023-05-27T04:22:24;7.35;;;6.65;;
22935;SDS011;11633;42.716;23.312;2023-05-27T04:24:51;7.75;;;6.05;;
22935;SDS011;11633;42.716;23.312;2023-05-27T04:27:18;5.78;;;5.05;;
22935;SDS011;11633;42.716;23.312;2023-05-27T04:29:44;7.88;;;6.43;;
22935;SDS011;11633;42.716;23.312;2023-05-27T04:32:10;7.82;;;4.57;;
22935;SDS011;11633;42.716;23.312;2023-05-27T04:34:35;5.53;;;5.03;;
22935;SDS011;11633;42.716;23.312;2023-05-27T04:37:01;5.88;;;4.70;;
22935;SDS011;11633;42.716;23.312;2023-05-27T04:39:27;5.75;;;4.55;;
22935;SDS011;11633;42.716;23.312;2023-05-27T04:41:52;5.10;;;4.60;;
22935;SDS011;11633;42.716;23.312;2023-05-27T04:44:17;5.18;;;4.35;;
22935;SDS011;11633;42.716;23.312;2023-05-27T04:46:43;7.57;;;4.10;;
22935;SDS011;11633;42.716;23.312;2023-05-27T04:49:09;4.97;;;4.47;;
22935;SDS011;11633;42.716;23.312;2023-05-27T04:51:35;6.07;;;4.85;;
22935;SDS011;11633;42.716;23.312;2023-05-27T04:54:00;6.32;;;4.80;;
22935;SDS011;11633;42.716;23.312;2023-05-27T04:56:26;5.50;;;4.97;;
22935;SDS011;11633;42.716;23.312;2023-05-27T04:58:52;7.07;;;5.53;;
22935;SDS011;11633;42.716;23.312;2023-05-27T05:01:17;5.93;;;4.60;;
22935;SDS011;11633;42.716;23.312;2023-05-27T05:03:45;6.75;;;5.22;;
22935;SDS011;11633;42.716;23.312;2023-05-27T05:06:29;7.82;;;5.18;;
22935;SDS011;11633;42.716;23.312;2023-05-27T05:08:54;8.02;;;5.80;;
22935;SDS011;11633;42.716;23.312;2023-05-27T05:11:19;7.18;;;5.50;;
22935;SDS011;11633;42.716;23.312;2023-05-27T05:13:45;8.02;;;5.47;;
22935;SDS011;11633;42.716;23.312;2023-05-27T05:16:10;11.15;;;7.28;;
22935;SDS011;11633;42.716;23.312;2023-05-27T05:18:36;6.55;;;5.32;;
22935;SDS011;11633;42.716;23.312;2023-05-27T05:21:01;6.40;;;5.18;;
22935;SDS011;11633;42.716;23.312;2023-05-27T05:23:26;7.90;;;5.70;;
22935;SDS011;11633;42.716;23.312;2023-05-27T05:25:51;8.30;;;5.70;;
22935;SDS011;11633;42.716;23.312;2023-05-27T05:28:23;7.20;;;6.25;;
22935;SDS011;11633;42.716;23.312;2023-05-27T05:30:48;8.43;;;5.07;;
22935;SDS011;11633;42.716;23.312;2023-05-27T05:33:13;7.72;;;5.50;;
22935;SDS011;11633;42.716;23.312;2023-05-27T05:35:38;7.65;;;5.93;;
22935;SDS011;11633;42.716;23.312;2023-05-27T05:38:04;6.57;;;5.72;;
22935;SDS011;11633;42.716;23.312;2023-05-27T05:40:29;7.63;;;6.45;;
22935;SDS011;11633;42.716;23.312;2023-05-27T05:42:54;8.32;;;5.97;;
22935;SDS011;11633;42.716;23.312;2023-05-27T05:45:19;10.20;;;6.13;;
22935;SDS011;11633;42.716;23.312;2023-05-27T05:47:44;7.10;;;5.80;;
22935;SDS011;11633;42.716;23.312;2023-05-27T05:50:10;8.25;;;6.55;;
22935;SDS011;11633;42.716;23.312;2023-05-27T05:52:35;7.82;;;5.75;;
22935;SDS011;11633;42.716;23.312;2023-05-27T05:55:00;9.95;;;6.00;;
22935;SDS011;11633;42.716;23.312;2023-05-27T05:57:25;6.05;;;5.45;;
22935;SDS011;11633;42.716;23.312;2023-05-27T05:59:51;5.82;;;5.20;;
22935;SDS011;11633;42.716;23.312;2023-05-27T06:02:16;6.50;;;5.78;;
22935;SDS011;11633;42.716;23.312;2023-05-27T06:04:41;6.05;;;5.30;;
22935;SDS011;11633;42.716;23.312;2023-05-27T06:07:06;6.95;;;6.22;;
22935;SDS011;11633;42.716;23.312;2023-05-27T06:09:32;6.68;;;5.40;;
22935;SDS011;11633;42.716;23.312;2023-05-27T06:11:57;6.20;;;5.25;;
22935;SDS011;11633;42.716;23.312;2023-05-27T06:14:22;8.50;;;6.57;;
22935;SDS011;11633;42.716;23.312;2023-05-27T06:16:47;9.65;;;6.50;;
22935;SDS011;11633;42.716;23.312;2023-05-27T06:19:13;9.35;;;7.00;;
22935;SDS011;11633;42.716;23.312;2023-05-27T06:21:38;9.93;;;6.82;;
22935;SDS011;11633;42.716;23.312;2023-05-27T06:24:03;8.40;;;6.70;;
22935;SDS011;11633;42.716;23.312;2023-05-27T06:26:29;8.43;;;7.57;;
22935;SDS011;11633;42.716;23.312;2023-05-27T06:28:54;8.52;;;6.90;;
22935;SDS011;11633;42.716;23.312;2023-05-27T06:31:19;6.95;;;5.93;;
22935;SDS011;11633;42.716;23.312;2023-05-27T06:33:45;7.10;;;6.25;;
22935;SDS011;11633;42.716;23.312;2023-05-27T06:36:10;7.10;;;6.40;;
22935;SDS011;11633;42.716;23.312;2023-05-27T06:38:36;7.20;;;6.50;;
22935;SDS011;11633;42.716;23.312;2023-05-27T06:41:01;7.90;;;6.55;;
22935;SDS011;11633;42.716;23.312;2023-05-27T06:43:26;7.30;;;6.50;;
22935;SDS011;11633;42.716;23.312;2023-05-27T06:45:51;7.72;;;6.40;;
22935;SDS011;11633;42.716;23.312;2023-05-27T06:48:17;11.13;;;6.57;;
22935;SDS011;11633;42.716;23.312;2023-05-27T06:50:42;7.20;;;6.35;;
22935;SDS011;11633;42.716;23.312;2023-05-27T06:53:07;9.07;;;6.28;;
22935;SDS011;11633;42.716;23.312;2023-05-27T06:55:32;7.65;;;6.38;;
22935;SDS011;11633;42.716;23.312;2023-05-27T06:57:58;11.48;;;6.78;;
22935;SDS011;11633;42.716;23.312;2023-05-27T07:00:23;7.13;;;6.30;;
22935;SDS011;11633;42.716;23.312;2023-05-27T07:02:48;7.32;;;6.30;;
22935;SDS011;11633;42.716;23.312;2023-05-27T07:05:13;8.70;;;6.07;;
22935;SDS011;11633;42.716;23.312;2023-05-27T07:07:38;7.35;;;5.03;;
22935;SDS011;11633;42.716;23.312;2023-05-27T07:10:04;8.25;;;5.68;;
22935;SDS011;11633;42.716;23.312;2023-05-27T07:12:29;8.57;;;5.53;;
22935;SDS011;11633;42.716;23.312;2023-05-27T07:14:54;7.18;;;6.07;;
22935;SDS011;11633;42.716;23.312;2023-05-27T07:17:20;6.70;;;5.43;;
22935;SDS011;11633;42.716;23.312;2023-05-27T07:19:45;6.72;;;5.82;;
22935;SDS011;11633;42.716;23.312;2023-05-27T07:22:10;7.57;;;5.53;;
22935;SDS011;11633;42.716;23.312;2023-05-27T07:24:35;9.75;;;5.22;;
22935;SDS011;11633;42.716;23.312;2023-05-27T07:27:01;7.65;;;5.28;;
22935;SDS011;11633;42.716;23.312;2023-05-27T07:29:26;8.75;;;5.30;;
22935;SDS011;11633;42.716;23.312;2023-05-27T07:31:51;6.30;;;5.10;;
22935;SDS011;11633;42.716;23.312;2023-05-27T07:34:17;9.00;;;5.30;;
22935;SDS011;11633;42.716;23.312;2023-05-27T07:36:42;7.60;;;5.70;;
22935;SDS011;11633;42.716;23.312;2023-05-27T07:39:07;9.27;;;5.93;;
22935;SDS011;11633;42.716;23.312;2023-05-27T07:41:32;10.73;;;6.45;;
22935;SDS011;11633;42.716;23.312;2023-05-27T07:43:58;6.25;;;5.65;;
22935;SDS011;11633;42.716;23.312;2023-05-27T07:46:23;6.28;;;5.68;;
22935;SDS011;11633;42.716;23.312;2023-05-27T07:48:48;8.25;;;5.63;;
22935;SDS011;11633;42.716;23.312;2023-05-27T07:51:14;7.45;;;5.28;;
22935;SDS011;11633;42.716;23.312;2023-05-27T07:53:39;7.22;;;5.30;;
22935;SDS011;11633;42.716;23.312;2023-05-27T07:56:05;6.82;;;5.70;;
22935;SDS011;11633;42.716;23.312;2023-05-27T07:58:30;8.10;;;5.65;;
22935;SDS011;11633;42.716;23.312;2023-05-27T08:00:55;5.88;;;5.28;;
22935;SDS011;11633;42.716;23.312;2023-05-27T08:03:20;7.00;;;5.72;;
22935;SDS011;11633;42.716;23.312;2023-05-27T08:05:46;5.72;;;5.03;;
22935;SDS011;11633;42.716;23.312;2023-05-27T08:08:12;6.25;;;5.60;;
22935;SDS011;11633;42.716;23.312;2023-05-27T08:10:37;10.52;;;5.15;;
22935;SDS011;11633;42.716;23.312;2023-05-27T08:13:02;8.75;;;5.30;;
22935;SDS011;11633;42.716;23.312;2023-05-27T08:15:27;8.98;;;4.82;;
22935;SDS011;11633;42.716;23.312;2023-05-27T08:17:53;6.38;;;5.47;;
22935;SDS011;11633;42.716;23.312;2023-05-27T08:20:18;5.72;;;5.07;;
22935;SDS011;11633;42.716;23.312;2023-05-27T08:22:43;5.43;;;4.90;;
22935;SDS011;11633;42.716;23.312;2023-05-27T08:25:08;6.68;;;5.22;;
22935;SDS011;11633;42.716;23.312;2023-05-27T08:27:48;7.05;;;4.75;;
22935;SDS011;11633;42.716;23.312;2023-05-27T08:30:14;4.97;;;4.47;;
22935;SDS011;11633;42.716;23.312;2023-05-27T08:32:40;4.50;;;4.10;;
22935;SDS011;11633;42.716;23.312;2023-05-27T08:35:06;4.78;;;3.75;;
22935;SDS011;11633;42.716;23.312;2023-05-27T08:37:31;5.07;;;4.13;;
22935;SDS011;11633;42.716;23.312;2023-05-27T08:39:56;6.72;;;4.78;;
22935;SDS011;11633;42.716;23.312;2023-05-27T08:42:23;5.88;;;4.90;;
22935;SDS011;11633;42.716;23.312;2023-05-27T08:44:48;6.95;;;4.00;;
22935;SDS011;11633;42.716;23.312;2023-05-27T08:47:13;6.90;;;5.05;;
22935;SDS011;11633;42.716;23.312;2023-05-27T08:49:39;5.95;;;4.07;;
22935;SDS011;11633;42.716;23.312;2023-05-27T08:52:05;5.57;;;3.95;;
22935;SDS011;11633;42.716;23.312;2023-05-27T08:54:31;5.63;;;4.07;;
22935;SDS011;11633;42.716;23.312;2023-05-27T08:56:58;5.22;;;4.53;;
22935;SDS011;11633;42.716;23.312;2023-05-27T08:59:24;4.68;;;4.28;;
22935;SDS011;11633;42.716;23.312;2023-05-27T09:01:50;7.43;;;4.60;;
22935;SDS011;11633;42.716;23.312;2023-05-27T09:04:16;4.70;;;3.60;;
22935;SDS011;11633;42.716;23.312;2023-05-27T09:06:41;4.65;;;3.33;;
22935;SDS011;11633;42.716;23.312;2023-05-27T09:09:07;6.03;;;4.38;;
22935;SDS011;11633;42.716;23.312;2023-05-27T09:11:33;7.40;;;5.10;;
22935;SDS011;11633;42.716;23.312;2023-05-27T09:14:00;5.30;;;4.63;;
22935;SDS011;11633;42.716;23.312;2023-05-27T09:16:25;6.22;;;4.72;;
22935;SDS011;11633;42.716;23.312;2023-05-27T09:18:51;5.47;;;4.25;;
22935;SDS011;11633;42.716;23.312;2023-05-27T09:21:16;6.57;;;4.75;;
22935;SDS011;11633;42.716;23.312;2023-05-27T09:23:42;7.72;;;5.30;;
22935;SDS011;11633;42.716;23.312;2023-05-27T09:26:08;6.00;;;5.18;;
22935;SDS011;11633;42.716;23.312;2023-05-27T09:28:35;6.13;;;5.10;;
22935;SDS011;11633;42.716;23.312;2023-05-27T09:31:04;5.70;;;5.18;;
22935;SDS011;11633;42.716;23.312;2023-05-27T09:33:33;6.07;;;4.80;;
22935;SDS011;11633;42.716;23.312;2023-05-27T09:35:59;6.22;;;4.10;;
22935;SDS011;11633;42.716;23.312;2023-05-27T09:38:29;4.35;;;3.40;;
22935;SDS011;11633;42.716;23.312;2023-05-27T09:40:55;5.38;;;4.28;;
22935;SDS011;11633;42.716;23.312;2023-05-27T09:43:20;5.20;;;3.55;;
22935;SDS011;11633;42.716;23.312;2023-05-27T09:45:45;6.05;;;3.70;;
22935;SDS011;11633;42.716;23.312;2023-05-27T09:48:11;4.70;;;4.20;;
22935;SDS011;11633;42.716;23.312;2023-05-27T09:50:37;4.75;;;3.75;;
22935;SDS011;11633;42.716;23.312;2023-05-27T09:53:03;8.95;;;3.95;;
22935;SDS011;11633;42.716;23.312;2023-05-27T09:55:29;4.50;;;3.92;;
22935;SDS011;11633;42.716;23.312;2023-05-27T09:57:55;5.90;;;4.22;;
22935;SDS011;11633;42.716;23.312;2023-05-27T10:00:20;7.13;;;4.32;;
22935;SDS011;11633;42.716;23.312;2023-05-27T10:02:46;4.55;;;4.13;;
22935;SDS011;11633;42.716;23.312;2023-05-27T10:05:12;10.13;;;7.25;;
22935;SDS011;11633;42.716;23.312;2023-05-27T10:07:38;5.15;;;4.47;;
22935;SDS011;11633;42.716;23.312;2023-05-27T10:10:07;6.10;;;5.00;;
22935;SDS011;11633;42.716;23.312;2023-05-27T10:12:34;6.90;;;5.82;;
22935;SDS011;11633;42.716;23.312;2023-05-27T10:14:59;4.60;;;3.15;;
22935;SDS011;11633;42.716;23.312;2023-05-27T10:17:24;4.65;;;3.75;;
22935;SDS011;11633;42.716;23.312;2023-05-27T10:19:53;4.28;;;3.17;;
22935;SDS011;11633;42.716;23.312;2023-05-27T10:22:20;4.78;;;3.50;;
22935;SDS011;11633;42.716;23.312;2023-05-27T10:24:46;4.03;;;3.53;;
22935;SDS011;11633;42.716;23.312;2023-05-27T10:27:13;4.43;;;3.05;;
22935;SDS011;11633;42.716;23.312;2023-05-27T10:29:38;4.93;;;3.13;;
22935;SDS011;11633;42.716;23.312;2023-05-27T10:32:06;3.55;;;3.10;;
22935;SDS011;11633;42.716;23.312;2023-05-27T10:34:37;3.50;;;3.13;;
22935;SDS011;11633;42.716;23.312;2023-05-27T10:37:06;3.53;;;2.90;;
22935;SDS011;11633;42.716;23.312;2023-05-27T10:39:32;3.38;;;2.78;;
22935;SDS011;11633;42.716;23.312;2023-05-27T10:41:57;3.50;;;3.17;;
22935;SDS011;11633;42.716;23.312;2023-05-27T10:44:26;4.88;;;3.35;;
22935;SDS011;11633;42.716;23.312;2023-05-27T10:47:01;3.92;;;3.63;;
22935;SDS011;11633;42.716;23.312;2023-05-27T10:49:27;3.67;;;3.15;;
22935;SDS011;11633;42.716;23.312;2023-05-27T10:52:07;3.70;;;3.00;;
22935;SDS011;11633;42.716;23.312;2023-05-27T10:54:38;3.65;;;3.33;;
22935;SDS011;11633;42.716;23.312;2023-05-27T10:57:03;4.70;;;3.35;;
22935;SDS011;11633;42.716;23.312;2023-05-27T10:59:31;3.25;;;2.85;;
22935;SDS011;11633;42.716;23.312;2023-05-27T11:01:59;3.15;;;2.90;;
22935;SDS011;11633;42.716;23.312;2023-05-27T11:04:25;6.00;;;3.58;;
22935;SDS011;11633;42.716;23.312;2023-05-27T11:06:59;3.53;;;3.22;;
22935;SDS011;11633;42.716;23.312;2023-05-27T11:09:25;3.90;;;2.90;;
22935;SDS011;11633;42.716;23.312;2023-05-27T11:11:50;4.10;;;3.08;;
22935;SDS011;11633;42.716;23.312;2023-05-27T11:14:16;4.00;;;3.45;;
22935;SDS011;11633;42.716;23.312;2023-05-27T11:16:45;3.08;;;2.78;;
22935;SDS011;11633;42.716;23.312;2023-05-27T11:19:11;5.97;;;2.95;;
22935;SDS011;11633;42.716;23.312;2023-05-27T11:21:36;3.33;;;2.78;;
22935;SDS011;11633;42.716;23.312;2023-05-27T11:24:16;4.53;;;3.38;;
22935;SDS011;11633;42.716;23.312;2023-05-27T11:26:42;3.90;;;3.47;;
22935;SDS011;11633;42.716;23.312;2023-05-27T11:29:08;3.55;;;3.03;;
22935;SDS011;11633;42.716;23.312;2023-05-27T11:31:34;7.25;;;3.10;;
22935;SDS011;11633;42.716;23.312;2023-05-27T11:34:00;4.35;;;3.20;;
22935;SDS011;11633;42.716;23.312;2023-05-27T11:36:26;3.53;;;2.95;;
22935;SDS011;11633;42.716;23.312;2023-05-27T11:38:58;3.58;;;2.88;;
22935;SDS011;11633;42.716;23.312;2023-05-27T11:41:27;3.17;;;2.88;;
22935;SDS011;11633;42.716;23.312;2023-05-27T11:44:00;3.50;;;3.20;;
22935;SDS011;11633;42.716;23.312;2023-05-27T11:46:36;5.40;;;4.55;;
22935;SDS011;11633;42.716;23.312;2023-05-27T11:49:05;6.22;;;2.97;;
22935;SDS011;11633;42.716;23.312;2023-05-27T11:51:32;3.45;;;3.13;;
22935;SDS011;11633;42.716;23.312;2023-05-27T11:53:58;3.30;;;2.95;;
22935;SDS011;11633;42.716;23.312;2023-05-27T11:56:25;3.30;;;2.88;;
22935;SDS011;11633;42.716;23.312;2023-05-27T11:58:51;4.07;;;2.88;;
22935;SDS011;11633;42.716;23.312;2023-05-27T12:01:16;4.10;;;3.30;;
22935;SDS011;11633;42.716;23.312;2023-05-27T12:03:41;3.83;;;3.15;;
22935;SDS011;11633;42.716;23.312;2023-05-27T12:06:06;4.80;;;3.30;;
22935;SDS011;11633;42.716;23.312;2023-05-27T12:08:32;4.90;;;3.30;;
22935;SDS011;11633;42.716;23.312;2023-05-27T12:10:57;3.90;;;3.50;;
22935;SDS011;11633;42.716;23.312;2023-05-27T12:13:22;4.80;;;3.38;;
22935;SDS011;11633;42.716;23.312;2023-05-27T12:15:48;6.32;;;3.65;;
22935;SDS011;11633;42.716;23.312;2023-05-27T12:18:14;5.05;;;3.33;;
22935;SDS011;11633;42.716;23.312;2023-05-27T12:20:39;3.97;;;3.03;;
22935;SDS011;11633;42.716;23.312;2023-05-27T12:23:05;4.82;;;3.30;;
22935;SDS011;11633;42.716;23.312;2023-05-27T12:25:31;5.50;;;3.08;;
22935;SDS011;11633;42.716;23.312;2023-05-27T12:27:56;5.10;;;3.35;;
22935;SDS011;11633;42.716;23.312;2023-05-27T12:30:21;5.05;;;2.85;;
22935;SDS011;11633;42.716;23.312;2023-05-27T12:32:46;4.72;;;2.97;;
22935;SDS011;11633;42.716;23.312;2023-05-27T12:35:12;3.17;;;2.65;;
22935;SDS011;11633;42.716;23.312;2023-05-27T12:37:37;3.85;;;3.08;;
22935;SDS011;11633;42.716;23.312;2023-05-27T12:40:02;3.97;;;2.85;;
22935;SDS011;11633;42.716;23.312;2023-05-27T12:42:30;3.33;;;3.00;;
22935;SDS011;11633;42.716;23.312;2023-05-27T12:44:57;6.63;;;3.92;;
22935;SDS011;11633;42.716;23.312;2023-05-27T12:47:22;7.13;;;3.15;;
22935;SDS011;11633;42.716;23.312;2023-05-27T12:49:48;5.35;;;3.17;;
22935;SDS011;11633;42.716;23.312;2023-05-27T12:52:13;5.30;;;3.38;;
22935;SDS011;11633;42.716;23.312;2023-05-27T12:54:39;3.65;;;3.17;;
22935;SDS011;11633;42.716;23.312;2023-05-27T12:57:04;3.95;;;3.55;;
22935;SDS011;11633;42.716;23.312;2023-05-27T12:59:30;3.25;;;2.75;;
22935;SDS011;11633;42.716;23.312;2023-05-27T13:01:55;2.92;;;2.60;;
22935;SDS011;11633;42.716;23.312;2023-05-27T13:04:20;4.05;;;2.80;;
22935;SDS011;11633;42.716;23.312;2023-05-27T13:06:46;3.83;;;3.28;;
22935;SDS011;11633;42.716;23.312;2023-05-27T13:09:11;3.15;;;2.85;;
22935;SDS011;11633;42.716;23.312;2023-05-27T13:11:38;3.35;;;2.35;;
22935;SDS011;11633;42.716;23.312;2023-05-27T13:14:03;5.30;;;3.58;;
22935;SDS011;11633;42.716;23.312;2023-05-27T13:16:28;3.45;;;3.15;;
22935;SDS011;11633;42.716;23.312;2023-05-27T13:18:54;3.92;;;3.35;;
22935;SDS011;11633;42.716;23.312;2023-05-27T13:21:19;3.00;;;2.55;;
22935;SDS011;11633;42.716;23.312;2023-05-27T13:23:44;3.10;;;2.80;;
22935;SDS011;11633;42.716;23.312;2023-05-27T13:26:09;4.10;;;2.70;;
22935;SDS011;11633;42.716;23.312;2023-05-27T13:28:35;2.90;;;2.60;;
22935;SDS011;11633;42.716;23.312;2023-05-27T13:31:01;3.22;;;2.92;;
22935;SDS011;11633;42.716;23.312;2023-05-27T13:33:28;4.82;;;2.95;;
22935;SDS011;11633;42.716;23.312;2023-05-27T13:35:53;3.25;;;2.95;;
22935;SDS011;11633;42.716;23.312;2023-05-27T13:38:19;3.65;;;3.10;;
22935;SDS011;11633;42.716;23.312;2023-05-27T13:40:44;5.55;;;3.13;;
22935;SDS011;11633;42.716;23.312;2023-05-27T13:43:09;3.45;;;3.15;;
22935;SDS011;11633;42.716;23.312;2023-05-27T13:45:34;5.35;;;2.63;;
22935;SDS011;11633;42.716;23.312;2023-05-27T13:48:00;3.33;;;2.88;;
22935;SDS011;11633;42.716;23.312;2023-05-27T13:50:25;3.38;;;3.05;;
22935;SDS011;11633;42.716;23.312;2023-05-27T13:52:50;3.47;;;3.17;;
22935;SDS011;11633;42.716;23.312;2023-05-27T13:55:16;3.80;;;2.65;;
22935;SDS011;11633;42.716;23.312;2023-05-27T13:57:41;3.95;;;3.13;;
22935;SDS011;11633;42.716;23.312;2023-05-27T14:00:08;4.00;;;2.75;;
22935;SDS011;11633;42.716;23.312;2023-05-27T14:02:34;5.10;;;2.58;;
22935;SDS011;11633;42.716;23.312;2023-05-27T14:04:59;3.72;;;3.25;;
22935;SDS011;11633;42.716;23.312;2023-05-27T14:07:24;3.03;;;2.83;;
22935;SDS011;11633;42.716;23.312;2023-05-27T14:09:50;3.65;;;3.00;;
22935;SDS011;11633;42.716;23.312;2023-05-27T14:12:15;3.78;;;3.08;;
22935;SDS011;11633;42.716;23.312;2023-05-27T14:14:40;3.83;;;3.00;;
22935;SDS011;11633;42.716;23.312;2023-05-27T14:17:08;3.33;;;2.40;;
22935;SDS011;11633;42.716;23.312;2023-05-27T14:19:34;2.85;;;2.65;;
22935;SDS011;11633;42.716;23.312;2023-05-27T14:21:59;4.32;;;3.17;;
22935;SDS011;11633;42.716;23.312;2023-05-27T14:24:24;5.68;;;3.05;;
22935;SDS011;11633;42.716;23.312;2023-05-27T14:26:50;4.13;;;3.35;;